sensor_id;sensor_type;location;lat;lon;timestamp;temperature;humidity
6291;DHT22;3178;48.730;8.990;2023-04-01T00:00:55;7.80;99.90
6291;DHT22;3178;48.730;8.990;2023-04-01T00:03:22;7.80;99.90
6291;DHT22;3178;48.730;8.990;2023-04-01T00:05:48;7.80;99.90
6291;DHT22;3178;48.730;8.990;2023-04-01T00:08:14;7.80;99.90
6291;DHT22;3178;48.730;8.990;2023-04-01T00:10:40;7.90;99.90
6291;DHT22;3178;48.730;8.990;2023-04-01T00:13:06;7.90;99.90
6291;DHT22;3178;48.730;8.990;2023-04-01T00:15:32;7.90;99.90
6291;DHT22;3178;48.730;8.990;2023-04-01T00:17:58;7.90;99.90
6291;DHT22;3178;48.730;8.990;2023-04-01T00:20:24;7.90;99.90
6291;DHT22;3178;48.730;8.990;2023-04-01T00:22:50;7.90;99.90
6291;DHT22;3178;48.730;8.990;2023-04-01T00:25:16;8.00;99.90
6291;DHT22;3178;48.730;8.990;2023-04-01T00:27:41;7.90;99.90
6291;DHT22;3178;48.730;8.990;2023-04-01T00:30:08;7.90;99.90
6291;DHT22;3178;48.730;8.990;2023-04-01T00:32:34;7.90;99.90
6291;DHT22;3178;48.730;8.990;2023-04-01T00:35:00;7.90;99.90
6291;DHT22;3178;48.730;8.990;2023-04-01T00:37:27;8.00;99.90
6291;DHT22;3178;48.730;8.990;2023-04-01T00:39:52;8.00;99.90
6291;DHT22;3178;48.730;8.990;2023-04-01T00:42:18;8.00;99.90
6291;DHT22;3178;48.730;8.990;2023-04-01T00:44:47;8.00;99.90
6291;DHT22;3178;48.730;8.990;2023-04-01T00:47:16;8.10;99.90
6291;DHT22;3178;48.730;8.990;2023-04-01T00:49:45;8.10;99.90
6291;DHT22;3178;48.730;8.990;2023-04-01T00:52:15;8.10;99.90
6291;DHT22;3178;48.730;8.990;2023-04-01T00:54:45;8.10;99.90
6291;DHT22;3178;48.730;8.990;2023-04-01T00:57:23;8.10;99.90
6291;DHT22;3178;48.730;8.990;2023-04-01T00:59:52;8.20;99.90
6291;DHT22;3178;48.730;8.990;2023-04-01T01:02:19;8.20;99.90
6291;DHT22;3178;48.730;8.990;2023-04-01T01:04:45;8.20;99.90
6291;DHT22;3178;48.730;8.990;2023-04-01T01:07:41;8.20;99.90
6291;DHT22;3178;48.730;8.990;2023-04-01T01:10:19;8.20;99.90
6291;DHT22;3178;48.730;8.990;2023-04-01T01:12:52;8.20;99.90
6291;DHT22;3178;48.730;8.990;2023-04-01T01:29:47;8.20;99.90
6291;DHT22;3178;48.730;8.990;2023-04-01T01:32:18;8.20;99.90
6291;DHT22;3178;48.730;8.990;2023-04-01T01:38:07;8.10;99.90
6291;DHT22;3178;48.730;8.990;2023-04-01T01:40:34;8.20;99.90
6291;DHT22;3178;48.730;8.990;2023-04-01T01:43:05;8.10;99.90
6291;DHT22;3178;48.730;8.990;2023-04-01T01:45:35;8.10;99.90
6291;DHT22;3178;48.730;8.990;2023-04-01T01:48:05;8.10;99.90
6291;DHT22;3178;48.730;8.990;2023-04-01T01:50:32;8.10;99.90
6291;DHT22;3178;48.730;8.990;2023-04-01T01:53:07;8.00;99.90
6291;DHT22;3178;48.730;8.990;2023-04-01T01:55:41;8.00;99.90
6291;DHT22;3178;48.730;8.990;2023-04-01T01:58:18;8.00;99.90
6291;DHT22;3178;48.730;8.990;2023-04-01T02:00:50;8.00;99.90
6291;DHT22;3178;48.730;8.990;2023-04-01T02:03:17;8.00;99.90
6291;DHT22;3178;48.730;8.990;2023-04-01T02:05:45;8.00;99.90
6291;DHT22;3178;48.730;8.990;2023-04-01T02:08:18;8.00;99.90
6291;DHT22;3178;48.730;8.990;2023-04-01T02:10:59;8.00;99.90
6291;DHT22;3178;48.730;8.990;2023-04-01T02:13:55;7.90;99.90
6291;DHT22;3178;48.730;8.990;2023-04-01T02:16:36;8.00;99.90
6291;DHT22;3178;48.730;8.990;2023-04-01T02:19:05;8.10;99.90
6291;DHT22;3178;48.730;8.990;2023-04-01T02:21:35;8.00;99.90
6291;DHT22;3178;48.730;8.990;2023-04-01T02:24:04;7.90;99.90
6291;DHT22;3178;48.730;8.990;2023-04-01T02:26:30;7.90;99.90
6291;DHT22;3178;48.730;8.990;2023-04-01T02:28:57;7.90;99.90
6291;DHT22;3178;48.730;8.990;2023-04-01T02:31:25;7.90;99.90
6291;DHT22;3178;48.730;8.990;2023-04-01T02:33:51;7.90;99.90
6291;DHT22;3178;48.730;8.990;2023-04-01T02:36:17;7.90;99.90
6291;DHT22;3178;48.730;8.990;2023-04-01T02:38:44;7.90;99.90
6291;DHT22;3178;48.730;8.990;2023-04-01T02:41:11;7.90;99.90
6291;DHT22;3178;48.730;8.990;2023-04-01T02:43:37;7.90;99.90
6291;DHT22;3178;48.730;8.990;2023-04-01T02:46:02;7.80;99.90
6291;DHT22;3178;48.730;8.990;2023-04-01T02:48:28;7.80;99.90
6291;DHT22;3178;48.730;8.990;2023-04-01T02:50:54;7.80;99.90
6291;DHT22;3178;48.730;8.990;2023-04-01T02:53:20;7.80;99.90
6291;DHT22;3178;48.730;8.990;2023-04-01T02:55:45;7.80;99.90
6291;DHT22;3178;48.730;8.990;2023-04-01T02:58:11;7.80;99.90
6291;DHT22;3178;48.730;8.990;2023-04-01T03:00:37;7.80;99.90
6291;DHT22;3178;48.730;8.990;2023-04-01T03:03:03;7.80;99.90
6291;DHT22;3178;48.730;8.990;2023-04-01T03:05:29;7.70;99.90
6291;DHT22;3178;48.730;8.990;2023-04-01T03:07:55;7.70;99.90
6291;DHT22;3178;48.730;8.990;2023-04-01T03:10:20;7.70;99.90
6291;DHT22;3178;48.730;8.990;2023-04-01T03:12:46;7.70;99.90
6291;DHT22;3178;48.730;8.990;2023-04-01T03:15:13;7.70;99.90
6291;DHT22;3178;48.730;8.990;2023-04-01T03:17:40;7.70;99.90
6291;DHT22;3178;48.730;8.990;2023-04-01T03:20:06;7.70;99.90
6291;DHT22;3178;48.730;8.990;2023-04-01T03:22:34;7.70;99.90
6291;DHT22;3178;48.730;8.990;2023-04-01T03:25:01;7.70;99.90
6291;DHT22;3178;48.730;8.990;2023-04-01T03:27:26;7.70;99.90
6291;DHT22;3178;48.730;8.990;2023-04-01T03:29:52;7.70;99.90
6291;DHT22;3178;48.730;8.990;2023-04-01T03:32:17;7.70;99.90
6291;DHT22;3178;48.730;8.990;2023-04-01T03:34:43;7.70;99.90
6291;DHT22;3178;48.730;8.990;2023-04-01T03:37:08;7.60;99.90
6291;DHT22;3178;48.730;8.990;2023-04-01T03:39:34;7.70;99.90
6291;DHT22;3178;48.730;8.990;2023-04-01T03:42:00;7.60;99.90
6291;DHT22;3178;48.730;8.990;2023-04-01T03:44:26;7.70;99.90
6291;DHT22;3178;48.730;8.990;2023-04-01T03:46:51;7.70;99.90
6291;DHT22;3178;48.730;8.990;2023-04-01T03:49:17;7.60;99.90
6291;DHT22;3178;48.730;8.990;2023-04-01T03:51:43;7.60;99.90
6291;DHT22;3178;48.730;8.990;2023-04-01T03:54:10;7.60;99.90
6291;DHT22;3178;48.730;8.990;2023-04-01T03:56:36;7.50;99.90
6291;DHT22;3178;48.730;8.990;2023-04-01T03:59:04;7.50;99.90
6291;DHT22;3178;48.730;8.990;2023-04-01T04:01:30;7.50;99.90
6291;DHT22;3178;48.730;8.990;2023-04-01T04:03:56;7.50;99.90
6291;DHT22;3178;48.730;8.990;2023-04-01T04:06:22;7.40;99.90
6291;DHT22;3178;48.730;8.990;2023-04-01T04:08:49;7.40;99.90
6291;DHT22;3178;48.730;8.990;2023-04-01T04:11:14;7.40;99.90
6291;DHT22;3178;48.730;8.990;2023-04-01T04:13:40;7.30;99.90
6291;DHT22;3178;48.730;8.990;2023-04-01T04:16:06;7.40;99.90
6291;DHT22;3178;48.730;8.990;2023-04-01T04:18:32;7.30;99.90
6291;DHT22;3178;48.730;8.990;2023-04-01T04:20:58;7.30;99.90
6291;DHT22;3178;48.730;8.990;2023-04-01T04:23:23;7.30;99.90
6291;DHT22;3178;48.730;8.990;2023-04-01T04:26:07;7.30;99.90
6291;DHT22;3178;48.730;8.990;2023-04-01T04:28:33;7.30;99.90
6291;DHT22;3178;48.730;8.990;2023-04-01T04:30:59;7.30;99.90
6291;DHT22;3178;48.730;8.990;2023-04-01T04:33:25;7.30;99.90
6291;DHT22;3178;48.730;8.990;2023-04-01T04:35:51;7.30;99.90
6291;DHT22;3178;48.730;8.990;2023-04-01T04:38:17;7.30;99.90
6291;DHT22;3178;48.730;8.990;2023-04-01T04:40:43;7.30;99.90
6291;DHT22;3178;48.730;8.990;2023-04-01T04:43:13;7.20;99.90
6291;DHT22;3178;48.730;8.990;2023-04-01T04:45:40;7.20;99.90
6291;DHT22;3178;48.730;8.990;2023-04-01T04:48:10;7.10;99.90
6291;DHT22;3178;48.730;8.990;2023-04-01T04:50:40;7.10;99.90
6291;DHT22;3178;48.730;8.990;2023-04-01T04:53:05;7.10;99.90
6291;DHT22;3178;48.730;8.990;2023-04-01T04:55:31;7.00;99.90
6291;DHT22;3178;48.730;8.990;2023-04-01T04:57:56;7.00;99.90
6291;DHT22;3178;48.730;8.990;2023-04-01T05:00:22;7.00;99.90
6291;DHT22;3178;48.730;8.990;2023-04-01T05:02:48;6.90;99.90
6291;DHT22;3178;48.730;8.990;2023-04-01T05:05:13;6.90;99.90
6291;DHT22;3178;48.730;8.990;2023-04-01T05:07:39;6.90;99.90
6291;DHT22;3178;48.730;8.990;2023-04-01T05:10:05;6.90;99.90
6291;DHT22;3178;48.730;8.990;2023-04-01T05:12:30;6.90;99.90
6291;DHT22;3178;48.730;8.990;2023-04-01T05:14:58;6.90;99.90
6291;DHT22;3178;48.730;8.990;2023-04-01T05:17:23;6.90;99.90
6291;DHT22;3178;48.730;8.990;2023-04-01T05:19:49;6.90;99.90
6291;DHT22;3178;48.730;8.990;2023-04-01T05:22:14;7.00;99.90
6291;DHT22;3178;48.730;8.990;2023-04-01T05:24:40;7.00;99.90
6291;DHT22;3178;48.730;8.990;2023-04-01T05:27:05;7.00;99.90
6291;DHT22;3178;48.730;8.990;2023-04-01T05:29:31;7.00;99.90
6291;DHT22;3178;48.730;8.990;2023-04-01T05:31:56;7.10;99.90
6291;DHT22;3178;48.730;8.990;2023-04-01T05:34:22;7.10;99.90
6291;DHT22;3178;48.730;8.990;2023-04-01T05:36:47;7.10;99.90
6291;DHT22;3178;48.730;8.990;2023-04-01T05:39:13;7.20;99.90
6291;DHT22;3178;48.730;8.990;2023-04-01T05:41:38;7.20;99.90
6291;DHT22;3178;48.730;8.990;2023-04-01T05:44:05;7.20;99.90
6291;DHT22;3178;48.730;8.990;2023-04-01T05:46:31;7.20;99.90
6291;DHT22;3178;48.730;8.990;2023-04-01T05:48:57;7.30;99.90
6291;DHT22;3178;48.730;8.990;2023-04-01T05:51:23;7.30;99.90
6291;DHT22;3178;48.730;8.990;2023-04-01T05:53:49;7.40;99.90
6291;DHT22;3178;48.730;8.990;2023-04-01T05:56:14;7.40;99.90
6291;DHT22;3178;48.730;8.990;2023-04-01T05:58:40;7.40;99.90
6291;DHT22;3178;48.730;8.990;2023-04-01T06:01:12;7.50;99.90
6291;DHT22;3178;48.730;8.990;2023-04-01T06:03:37;7.50;99.90
6291;DHT22;3178;48.730;8.990;2023-04-01T06:06:03;7.50;99.90
6291;DHT22;3178;48.730;8.990;2023-04-01T06:08:32;7.60;99.90
6291;DHT22;3178;48.730;8.990;2023-04-01T06:14:07;7.60;99.90
6291;DHT22;3178;48.730;8.990;2023-04-01T06:16:39;7.60;99.90
6291;DHT22;3178;48.730;8.990;2023-04-01T06:19:24;7.70;99.90
6291;DHT22;3178;48.730;8.990;2023-04-01T06:22:03;7.70;99.90
6291;DHT22;3178;48.730;8.990;2023-04-01T06:24:57;7.70;99.90
6291;DHT22;3178;48.730;8.990;2023-04-01T06:27:44;7.70;99.90
6291;DHT22;3178;48.730;8.990;2023-04-01T06:30:43;7.70;99.90
6291;DHT22;3178;48.730;8.990;2023-04-01T06:33:13;7.70;99.90
6291;DHT22;3178;48.730;8.990;2023-04-01T06:36:05;7.70;99.90
6291;DHT22;3178;48.730;8.990;2023-04-01T06:38:59;7.70;99.90
6291;DHT22;3178;48.730;8.990;2023-04-01T06:41:55;7.80;99.90
6291;DHT22;3178;48.730;8.990;2023-04-01T06:47:20;7.80;99.90
6291;DHT22;3178;48.730;8.990;2023-04-01T06:57:48;7.90;99.90
6291;DHT22;3178;48.730;8.990;2023-04-01T07:03:12;7.80;99.90
6291;DHT22;3178;48.730;8.990;2023-04-01T07:05:42;7.90;99.90
6291;DHT22;3178;48.730;8.990;2023-04-01T07:08:19;7.90;99.90
6291;DHT22;3178;48.730;8.990;2023-04-01T07:10:58;7.90;99.90
6291;DHT22;3178;48.730;8.990;2023-04-01T07:13:58;7.90;99.90
6291;DHT22;3178;48.730;8.990;2023-04-01T07:16:43;8.00;99.90
6291;DHT22;3178;48.730;8.990;2023-04-01T07:19:31;8.00;99.90
6291;DHT22;3178;48.730;8.990;2023-04-01T07:22:03;8.00;99.90
6291;DHT22;3178;48.730;8.990;2023-04-01T07:24:34;8.00;99.90
6291;DHT22;3178;48.730;8.990;2023-04-01T07:27:01;8.10;99.90
6291;DHT22;3178;48.730;8.990;2023-04-01T07:29:26;8.10;99.90
6291;DHT22;3178;48.730;8.990;2023-04-01T07:47:41;8.00;99.90
6291;DHT22;3178;48.730;8.990;2023-04-01T07:50:29;8.10;99.90
6291;DHT22;3178;48.730;8.990;2023-04-01T07:56:05;8.20;99.90
6291;DHT22;3178;48.730;8.990;2023-04-01T08:06:36;8.20;99.90
6291;DHT22;3178;48.730;8.990;2023-04-01T08:09:34;8.30;99.90
6291;DHT22;3178;48.730;8.990;2023-04-01T08:12:38;8.30;99.90
6291;DHT22;3178;48.730;8.990;2023-04-01T08:20:39;8.20;99.90
6291;DHT22;3178;48.730;8.990;2023-04-01T08:23:22;8.30;99.90
6291;DHT22;3178;48.730;8.990;2023-04-01T08:29:02;8.20;99.90
6291;DHT22;3178;48.730;8.990;2023-04-01T08:31:47;8.20;99.90
6291;DHT22;3178;48.730;8.990;2023-04-01T08:34:21;8.20;99.90
6291;DHT22;3178;48.730;8.990;2023-04-01T08:37:25;8.20;99.90
6291;DHT22;3178;48.730;8.990;2023-04-01T08:39:55;8.20;99.90
6291;DHT22;3178;48.730;8.990;2023-04-01T08:56:06;8.10;99.90
6291;DHT22;3178;48.730;8.990;2023-04-01T08:58:51;8.10;99.90
6291;DHT22;3178;48.730;8.990;2023-04-01T09:01:35;8.10;99.90
6291;DHT22;3178;48.730;8.990;2023-04-01T09:07:44;8.20;99.90
6291;DHT22;3178;48.730;8.990;2023-04-01T09:23:58;9.10;99.90
6291;DHT22;3178;48.730;8.990;2023-04-01T09:29:23;9.30;99.90
6291;DHT22;3178;48.730;8.990;2023-04-01T09:35:05;9.40;99.90
6291;DHT22;3178;48.730;8.990;2023-04-01T09:37:58;9.30;99.90
6291;DHT22;3178;48.730;8.990;2023-04-01T09:49:26;9.00;99.90
6291;DHT22;3178;48.730;8.990;2023-04-01T09:55:21;8.80;99.90
6291;DHT22;3178;48.730;8.990;2023-04-01T10:01:03;8.80;99.90
6291;DHT22;3178;48.730;8.990;2023-04-01T10:09:32;8.80;99.90
6291;DHT22;3178;48.730;8.990;2023-04-01T10:26:18;9.10;99.90
6291;DHT22;3178;48.730;8.990;2023-04-01T11:00:51;10.40;99.90
6291;DHT22;3178;48.730;8.990;2023-04-01T11:03:30;10.30;99.90
6291;DHT22;3178;48.730;8.990;2023-04-01T11:12:26;10.00;99.90
6291;DHT22;3178;48.730;8.990;2023-04-01T11:15:21;10.10;99.90
6291;DHT22;3178;48.730;8.990;2023-04-01T11:20:51;10.10;99.90
6291;DHT22;3178;48.730;8.990;2023-04-01T11:26:23;10.10;99.90
6291;DHT22;3178;48.730;8.990;2023-04-01T11:31:58;10.20;99.90
6291;DHT22;3178;48.730;8.990;2023-04-01T11:34:43;10.30;99.90
6291;DHT22;3178;48.730;8.990;2023-04-01T11:40:33;10.40;99.90
6291;DHT22;3178;48.730;8.990;2023-04-01T11:43:32;10.50;99.90
6291;DHT22;3178;48.730;8.990;2023-04-01T11:46:20;10.40;99.90
6291;DHT22;3178;48.730;8.990;2023-04-01T11:48:58;10.50;99.90
6291;DHT22;3178;48.730;8.990;2023-04-01T11:51:54;10.40;99.90
6291;DHT22;3178;48.730;8.990;2023-04-01T11:54:54;10.40;99.90
6291;DHT22;3178;48.730;8.990;2023-04-01T12:06:38;10.10;99.90
6291;DHT22;3178;48.730;8.990;2023-04-01T12:12:52;10.20;99.90
6291;DHT22;3178;48.730;8.990;2023-04-01T12:17:45;10.00;99.90
6291;DHT22;3178;48.730;8.990;2023-04-01T12:22:59;9.90;99.90
6291;DHT22;3178;48.730;8.990;2023-04-01T12:41:51;10.20;99.90
6291;DHT22;3178;48.730;8.990;2023-04-01T12:47:45;10.10;99.90
6291;DHT22;3178;48.730;8.990;2023-04-01T12:55:52;10.40;99.90
6291;DHT22;3178;48.730;8.990;2023-04-01T13:06:27;10.50;99.90
6291;DHT22;3178;48.730;8.990;2023-04-01T13:19:58;10.50;99.90
6291;DHT22;3178;48.730;8.990;2023-04-01T13:22:34;10.50;99.90
6291;DHT22;3178;48.730;8.990;2023-04-01T13:25:04;10.50;99.90
6291;DHT22;3178;48.730;8.990;2023-04-01T13:27:38;10.50;99.90
6291;DHT22;3178;48.730;8.990;2023-04-01T13:30:33;10.60;99.90
6291;DHT22;3178;48.730;8.990;2023-04-01T13:33:20;10.60;99.90
6291;DHT22;3178;48.730;8.990;2023-04-01T13:36:03;10.50;99.90
6291;DHT22;3178;48.730;8.990;2023-04-01T13:46:46;10.40;99.90
6291;DHT22;3178;48.730;8.990;2023-04-01T13:49:32;10.50;99.90
6291;DHT22;3178;48.730;8.990;2023-04-01T13:58:11;10.40;99.90
6291;DHT22;3178;48.730;8.990;2023-04-01T14:03:42;10.40;99.90
6291;DHT22;3178;48.730;8.990;2023-04-01T14:12:02;10.30;99.90
6291;DHT22;3178;48.730;8.990;2023-04-01T14:22:43;10.30;99.90
6291;DHT22;3178;48.730;8.990;2023-04-01T14:28:03;10.30;99.90
6291;DHT22;3178;48.730;8.990;2023-04-01T14:39:22;10.40;99.90
6291;DHT22;3178;48.730;8.990;2023-04-01T14:44:48;10.40;99.90
6291;DHT22;3178;48.730;8.990;2023-04-01T14:49:54;10.40;99.90
6291;DHT22;3178;48.730;8.990;2023-04-01T14:52:32;10.20;99.90
6291;DHT22;3178;48.730;8.990;2023-04-01T14:55:15;10.20;99.90
6291;DHT22;3178;48.730;8.990;2023-04-01T14:58:00;10.20;99.90
6291;DHT22;3178;48.730;8.990;2023-04-01T15:03:32;10.10;99.90
6291;DHT22;3178;48.730;8.990;2023-04-01T15:25:14;10.30;99.90
6291;DHT22;3178;48.730;8.990;2023-04-01T15:39:29;10.10;99.90
6291;DHT22;3178;48.730;8.990;2023-04-01T15:42:31;10.10;99.90
6291;DHT22;3178;48.730;8.990;2023-04-01T15:45:17;10.10;99.90
6291;DHT22;3178;48.730;8.990;2023-04-01T15:48:05;10.10;99.90
6291;DHT22;3178;48.730;8.990;2023-04-01T16:01:40;10.00;99.90
6291;DHT22;3178;48.730;8.990;2023-04-01T16:04:54;9.90;99.90
6291;DHT22;3178;48.730;8.990;2023-04-01T16:09:56;9.70;99.90
6291;DHT22;3178;48.730;8.990;2023-04-01T16:15:52;9.70;99.90
6291;DHT22;3178;48.730;8.990;2023-04-01T16:21:38;9.70;99.90
6291;DHT22;3178;48.730;8.990;2023-04-01T16:29:57;9.60;99.90
6291;DHT22;3178;48.730;8.990;2023-04-01T16:32:41;9.60;99.90
6291;DHT22;3178;48.730;8.990;2023-04-01T16:41:16;9.70;99.90
6291;DHT22;3178;48.730;8.990;2023-04-01T16:43:43;9.70;99.90
6291;DHT22;3178;48.730;8.990;2023-04-01T16:49:14;9.70;99.90
6291;DHT22;3178;48.730;8.990;2023-04-01T16:56:49;9.70;99.90
6291;DHT22;3178;48.730;8.990;2023-04-01T17:04:37;9.70;99.90
6291;DHT22;3178;48.730;8.990;2023-04-01T17:07:14;9.70;99.90
6291;DHT22;3178;48.730;8.990;2023-04-01T17:16:01;9.80;99.90
6291;DHT22;3178;48.730;8.990;2023-04-01T17:19:10;9.80;99.90
6291;DHT22;3178;48.730;8.990;2023-04-01T17:28:04;9.70;99.90
6291;DHT22;3178;48.730;8.990;2023-04-01T17:42:10;9.60;99.90
6291;DHT22;3178;48.730;8.990;2023-04-01T17:55:37;9.70;99.90
6291;DHT22;3178;48.730;8.990;2023-04-01T17:58:19;9.70;99.90
6291;DHT22;3178;48.730;8.990;2023-04-01T18:04:06;9.70;99.90
6291;DHT22;3178;48.730;8.990;2023-04-01T18:06:36;9.70;99.90
6291;DHT22;3178;48.730;8.990;2023-04-01T18:18:04;9.50;99.90
6291;DHT22;3178;48.730;8.990;2023-04-01T18:26:08;9.30;99.90
6291;DHT22;3178;48.730;8.990;2023-04-01T18:28:38;9.20;99.90
6291;DHT22;3178;48.730;8.990;2023-04-01T18:31:11;9.20;99.90
6291;DHT22;3178;48.730;8.990;2023-04-01T18:33:57;9.10;99.90
6291;DHT22;3178;48.730;8.990;2023-04-01T18:36:51;9.10;99.90
6291;DHT22;3178;48.730;8.990;2023-04-01T18:39:38;9.00;99.90
6291;DHT22;3178;48.730;8.990;2023-04-01T18:42:36;9.10;99.90
6291;DHT22;3178;48.730;8.990;2023-04-01T18:45:21;8.90;99.90
6291;DHT22;3178;48.730;8.990;2023-04-01T18:47:59;8.90;99.90
6291;DHT22;3178;48.730;8.990;2023-04-01T18:50:48;8.80;99.90
6291;DHT22;3178;48.730;8.990;2023-04-01T18:56:08;8.70;99.90
6291;DHT22;3178;48.730;8.990;2023-04-01T19:02:10;8.60;99.90
6291;DHT22;3178;48.730;8.990;2023-04-01T19:04:28;8.50;99.90
6291;DHT22;3178;48.730;8.990;2023-04-01T19:06:58;8.50;99.90
6291;DHT22;3178;48.730;8.990;2023-04-01T19:14:59;8.40;99.90
6291;DHT22;3178;48.730;8.990;2023-04-01T19:26:14;8.40;99.90
6291;DHT22;3178;48.730;8.990;2023-04-01T19:36:49;8.30;99.90
6291;DHT22;3178;48.730;8.990;2023-04-01T19:39:47;8.30;99.90
6291;DHT22;3178;48.730;8.990;2023-04-01T19:45:23;8.30;99.90
6291;DHT22;3178;48.730;8.990;2023-04-01T19:50:42;8.20;99.90
6291;DHT22;3178;48.730;8.990;2023-04-01T19:53:24;8.20;99.90
6291;DHT22;3178;48.730;8.990;2023-04-01T19:56:10;8.20;99.90
6291;DHT22;3178;48.730;8.990;2023-04-01T20:04:11;8.30;99.90
6291;DHT22;3178;48.730;8.990;2023-04-01T20:15:03;8.20;99.90
6291;DHT22;3178;48.730;8.990;2023-04-01T20:17:44;8.20;99.90
6291;DHT22;3178;48.730;8.990;2023-04-01T20:27:51;8.10;99.90
6291;DHT22;3178;48.730;8.990;2023-04-01T20:33:45;8.10;99.90
6291;DHT22;3178;48.730;8.990;2023-04-01T20:53:04;8.10;99.90
6291;DHT22;3178;48.730;8.990;2023-04-01T21:01:40;8.20;99.90
6291;DHT22;3178;48.730;8.990;2023-04-01T21:09:51;8.20;99.90
6291;DHT22;3178;48.730;8.990;2023-04-01T21:12:40;8.20;99.90
6291;DHT22;3178;48.730;8.990;2023-04-01T21:15:53;8.20;99.90
6291;DHT22;3178;48.730;8.990;2023-04-01T21:31:51;8.10;99.90
6291;DHT22;3178;48.730;8.990;2023-04-01T21:42:32;8.10;99.90
6291;DHT22;3178;48.730;8.990;2023-04-01T21:45:33;8.10;99.90
6291;DHT22;3178;48.730;8.990;2023-04-01T21:51:24;8.10;99.90
6291;DHT22;3178;48.730;8.990;2023-04-01T21:54:10;8.10;99.90
6291;DHT22;3178;48.730;8.990;2023-04-01T21:59:56;8.10;99.90
6291;DHT22;3178;48.730;8.990;2023-04-01T22:07:57;8.10;99.90
6291;DHT22;3178;48.730;8.990;2023-04-01T22:10:38;8.10;99.90
6291;DHT22;3178;48.730;8.990;2023-04-01T22:13:13;8.20;99.90
6291;DHT22;3178;48.730;8.990;2023-04-01T22:19:05;8.20;99.90
6291;DHT22;3178;48.730;8.990;2023-04-01T22:21:48;8.20;99.90
6291;DHT22;3178;48.730;8.990;2023-04-01T22:27:41;8.10;99.90
6291;DHT22;3178;48.730;8.990;2023-04-01T22:30:17;8.10;99.90
6291;DHT22;3178;48.730;8.990;2023-04-01T22:32:54;7.90;99.90
6291;DHT22;3178;48.730;8.990;2023-04-01T22:44:38;7.90;99.90
6291;DHT22;3178;48.730;8.990;2023-04-01T22:47:08;7.90;99.90
6291;DHT22;3178;48.730;8.990;2023-04-01T22:49:49;7.90;99.90
6291;DHT22;3178;48.730;8.990;2023-04-01T22:55:00;7.80;99.90
6291;DHT22;3178;48.730;8.990;2023-04-01T23:00:21;7.70;99.90
6291;DHT22;3178;48.730;8.990;2023-04-01T23:03:04;7.70;99.90
6291;DHT22;3178;48.730;8.990;2023-04-01T23:05:36;7.70;99.90
6291;DHT22;3178;48.730;8.990;2023-04-01T23:08:46;7.70;99.90
6291;DHT22;3178;48.730;8.990;2023-04-01T23:22:51;7.40;99.90
6291;DHT22;3178;48.730;8.990;2023-04-01T23:28:38;7.30;99.90
6291;DHT22;3178;48.730;8.990;2023-04-01T23:33:29;7.10;99.90
6291;DHT22;3178;48.730;8.990;2023-04-01T23:35:58;7.20;99.90
6291;DHT22;3178;48.730;8.990;2023-04-01T23:38:36;7.20;99.90
6291;DHT22;3178;48.730;8.990;2023-04-01T23:41:04;7.40;99.90
6291;DHT22;3178;48.730;8.990;2023-04-01T23:43:38;7.20;99.90
6291;DHT22;3178;48.730;8.990;2023-04-01T23:46:06;7.20;99.90
6291;DHT22;3178;48.730;8.990;2023-04-01T23:48:38;7.20;99.90
6291;DHT22;3178;48.730;8.990;2023-04-01T23:51:23;7.10;99.90
6291;DHT22;3178;48.730;8.990;2023-04-01T23:54:01;7.10;99.90
6291;DHT22;3178;48.730;8.990;2023-04-01T23:56:49;7.10;99.90
6291;DHT22;3178;48.730;8.990;2023-04-01T23:59:24;7.10;99.90
